Karl Stefan Memorial Airport Norfolk US
ICAO: KOFK
IATA: OFK
Category: Medium
Scheduled Services: No

Elevation: 1573 ft
TransAlt. 18000 ft.

Airport Communications:
ASOS:119.025
COLUMBUS RDO:122.15
CTAF/UNICOM:122.7

KOFK Zoom In..

Runways:

(A) RW 01 length 5800 ft width 100 ft
ILS 111.50 / hdg 14

(B) RW 14 length 5800 ft width 100 ft
---- / hdg 137

(C) RW 19 length 5800 ft width 100 ft
---- / hdg 194

(D) RW 32 length 5800 ft width 100 ft
---- / hdg 317

Location; KOFK
Day. 20 / Time. 16.56 Zulu
* Altimeter: 30.17
* Temperature: 11° c. 51.8°f.
* Wind from: 020° Speed 09 kn.
Dewpoint: 10° c.
Visibility: 10 Statute Miles.
Clouds: Overcast 1100 ft.

KOFK 201656Z AUTO 02009KT 10SM OVC011 11/10 A3017 RMK AO2 RAB09E25 CIG 006V014 SLP219 P0000 T01110100


Wind From 020°
Speed 09 kn.

 
 
jpsmedia.com for Web Design SOUNDCLOUD worldairports.se 2018   terms of use